Time;durP1;ratioP1;P1;durP2;ratioP2;P2;SDS_P1;SDS_P2;PMS_P1;PMS_P2;Temp;Humidity;BMP_temperature;BMP_pressure;BME280_temperature;BME280_humidity;BME280_pressure;Samples;Min_cycle;Max_cycle;Signal;HPM_P1;HPM_P2
2023/01/26 00:02:03;;;;;;;88.07;39.30;;;2.50;99.90;;;;;;4976583;28;20639;-55
2023/01/26 00:04:28;;;;;;;90.17;39.10;;;2.50;99.90;;;;;;4976841;28;20181;-55
2023/01/26 00:06:54;;;;;;;83.93;37.53;;;2.50;99.90;;;;;;4976774;28;20248;-54
2023/01/26 00:09:20;;;;;;;82.87;36.93;;;2.50;99.90;;;;;;4976600;28;20190;-54
2023/01/26 00:11:45;;;;;;;93.60;40.23;;;2.50;99.90;;;;;;4976634;28;20181;-55
2023/01/26 00:14:11;;;;;;;83.10;35.50;;;2.50;99.90;;;;;;4976940;28;20235;-54
2023/01/26 00:16:37;;;;;;;81.80;37.73;;;2.50;99.90;;;;;;4976241;28;20742;-56
2023/01/26 00:19:03;;;;;;;81.00;36.50;;;2.60;99.90;;;;;;4976513;28;20240;-55
2023/01/26 00:21:29;;;;;;;80.23;35.30;;;2.60;99.90;;;;;;4976321;28;20562;-54
2023/01/26 00:23:56;;;;;;;86.23;36.37;;;2.50;99.90;;;;;;4975982;28;20190;-54
2023/01/26 00:26:24;;;;;;;86.47;38.23;;;2.50;99.90;;;;;;4976645;28;20321;-54
2023/01/26 00:28:50;;;;;;;87.47;38.70;;;2.50;99.90;;;;;;4976176;28;20174;-54
2023/01/26 00:31:24;;;;;;;93.30;38.93;;;2.50;99.90;;;;;;4976060;28;20264;-53
2023/01/26 00:33:51;;;;;;;83.30;38.20;;;2.60;99.90;;;;;;4976241;28;20665;-54
2023/01/26 00:36:17;;;;;;;81.30;36.03;;;2.60;99.90;;;;;;4976077;28;20198;-54
2023/01/26 00:38:42;;;;;;;77.40;34.80;;;2.60;99.90;;;;;;4976092;28;20191;-55
2023/01/26 00:42:05;;;;;;;82.30;36.20;;;2.60;99.90;;;;;;4975895;28;20232;-54
2023/01/26 00:43:55;;;;;;;82.77;37.03;;;2.60;99.90;;;;;;4975726;28;20192;-55
2023/01/26 00:46:20;;;;;;;78.30;35.00;;;2.60;99.90;;;;;;4976012;28;20617;-53
2023/01/26 00:48:46;;;;;;;84.97;39.30;;;2.60;99.90;;;;;;4975929;28;20192;-54
2023/01/26 00:51:12;;;;;;;88.23;38.37;;;2.60;99.90;;;;;;4975867;28;20209;-55
2023/01/26 00:53:37;;;;;;;84.37;35.00;;;2.50;99.90;;;;;;4975758;28;20213;-55
2023/01/26 00:56:03;;;;;;;87.63;38.27;;;2.50;99.90;;;;;;4975225;28;20658;-54
2023/01/26 00:58:29;;;;;;;86.67;35.87;;;2.50;99.90;;;;;;4975883;28;20228;-55
2023/01/26 01:00:54;;;;;;;83.97;37.97;;;2.50;99.90;;;;;;4975454;28;20266;-53
2023/01/26 01:03:20;;;;;;;80.67;35.97;;;2.40;99.90;;;;;;4975717;28;20209;-55
2023/01/26 01:05:46;;;;;;;88.17;37.20;;;2.50;99.90;;;;;;4975525;28;20198;-52
2023/01/26 01:08:11;;;;;;;87.67;36.93;;;2.50;99.90;;;;;;4975574;28;20217;-54
2023/01/26 01:10:37;;;;;;;77.47;34.80;;;2.50;99.90;;;;;;4975347;28;20190;-53
2023/01/26 01:13:03;;;;;;;82.10;35.43;;;2.50;99.90;;;;;;4975590;28;20182;-53
2023/01/26 01:15:28;;;;;;;80.73;34.23;;;2.50;99.90;;;;;;4975495;28;20183;-53
2023/01/26 01:17:54;;;;;;;89.00;36.43;;;2.50;99.90;;;;;;4975302;28;20590;-55
2023/01/26 01:20:19;;;;;;;79.13;35.27;;;2.60;99.90;;;;;;4975374;28;20264;-55
2023/01/26 01:22:45;;;;;;;92.80;38.27;;;2.60;99.90;;;;;;4975321;28;20181;-55
2023/01/26 01:25:11;;;;;;;81.43;34.80;;;2.60;99.90;;;;;;4975524;28;20223;-54
2023/01/26 01:27:37;;;;;;;81.43;32.40;;;2.50;99.90;;;;;;4974942;28;20186;-52
2023/01/26 01:30:06;;;;;;;90.40;35.10;;;2.50;99.90;;;;;;4975278;28;20285;-55
2023/01/26 01:32:34;;;;;;;81.73;35.90;;;2.50;99.90;;;;;;4975119;28;20272;-55
2023/01/26 01:35:00;;;;;;;91.13;38.03;;;2.50;99.90;;;;;;4975309;28;20543;-56
2023/01/26 01:37:28;;;;;;;82.07;36.43;;;2.40;99.90;;;;;;4974833;28;20217;-54
2023/01/26 01:39:54;;;;;;;85.53;35.37;;;2.50;99.90;;;;;;4974833;28;20229;-54
2023/01/26 01:42:20;;;;;;;85.33;36.90;;;2.50;99.90;;;;;;4975084;28;20237;-54
2023/01/26 01:45:24;;;;;;;79.63;33.13;;;2.50;99.90;;;;;;4974918;28;20673;-55
2023/01/26 01:47:50;;;;;;;85.23;34.83;;;2.50;99.90;;;;;;4974806;28;20291;-54
2023/01/26 01:50:18;;;;;;;89.20;35.20;;;2.60;99.90;;;;;;4974695;28;20188;-54
2023/01/26 01:52:44;;;;;;;83.17;35.17;;;2.50;99.90;;;;;;4974871;28;20939;-52
2023/01/26 01:55:11;;;;;;;80.50;35.57;;;2.50;99.90;;;;;;4974652;28;20265;-54
2023/01/26 01:57:44;;;;;;;84.93;34.53;;;2.60;99.90;;;;;;4974571;28;20256;-53
2023/01/26 02:00:14;;;;;;;87.30;38.07;;;2.50;99.90;;;;;;4974819;28;20543;-55
2023/01/26 02:02:43;;;;;;;95.20;37.17;;;2.50;99.90;;;;;;4974999;28;20181;-54
2023/01/26 02:05:26;;;;;;;88.13;35.53;;;2.50;99.90;;;;;;4975104;28;20202;-54
2023/01/26 02:07:53;;;;;;;87.40;35.80;;;2.50;99.90;;;;;;4974127;28;20184;-55
2023/01/26 02:10:20;;;;;;;81.87;34.87;;;2.40;99.90;;;;;;4974587;28;20174;-54
2023/01/26 02:12:48;;;;;;;94.70;35.57;;;2.40;99.90;;;;;;4974536;28;20181;-54
2023/01/26 02:15:14;;;;;;;80.83;33.97;;;2.30;99.90;;;;;;4974437;28;20196;-54
2023/01/26 02:17:40;;;;;;;80.10;33.67;;;2.40;99.90;;;;;;4974257;28;20682;-54
2023/01/26 02:20:27;;;;;;;72.90;34.47;;;2.50;99.90;;;;;;4974553;28;20192;-54
2023/01/26 02:23:22;;;;;;;92.50;37.70;;;2.50;99.90;;;;;;4974301;28;20182;-54
2023/01/26 02:25:51;;;;;;;83.17;34.70;;;2.60;99.90;;;;;;4974396;28;20181;-54
2023/01/26 02:28:19;;;;;;;81.40;34.20;;;2.60;99.90;;;;;;4974530;28;20254;-54
2023/01/26 02:30:45;;;;;;;80.37;33.47;;;2.60;99.90;;;;;;4974296;28;20169;-54
2023/01/26 02:33:18;;;;;;;81.37;34.07;;;2.60;99.90;;;;;;4974386;28;20249;-55
2023/01/26 02:35:43;;;;;;;83.70;35.50;;;2.50;99.90;;;;;;4974224;28;20173;-55
2023/01/26 02:38:09;;;;;;;89.43;37.10;;;2.60;99.90;;;;;;4974261;28;20191;-54
2023/01/26 02:40:51;;;;;;;80.47;36.73;;;2.60;99.90;;;;;;4974150;28;20181;-54
2023/01/26 02:43:16;;;;;;;77.93;32.90;;;2.70;99.90;;;;;;4974420;28;20520;-54
2023/01/26 02:45:42;;;;;;;82.03;32.10;;;2.60;99.90;;;;;;4974190;28;20178;-54
2023/01/26 02:48:08;;;;;;;75.73;33.67;;;2.70;99.90;;;;;;4974211;28;20221;-54
2023/01/26 02:50:34;;;;;;;78.70;34.47;;;2.70;99.90;;;;;;4974074;28;20533;-55
2023/01/26 02:53:01;;;;;;;84.33;34.47;;;2.70;99.90;;;;;;4974028;28;20638;-56
2023/01/26 02:55:29;;;;;;;85.60;35.53;;;2.70;99.90;;;;;;4974286;28;20184;-54
2023/01/26 02:58:03;;;;;;;84.30;34.87;;;2.70;99.90;;;;;;4974085;28;20212;-54
2023/01/26 03:00:35;;;;;;;78.77;33.70;;;2.70;99.90;;;;;;4974149;28;20274;-54
2023/01/26 03:03:08;;;;;;;83.97;35.40;;;2.70;99.90;;;;;;4974042;28;20534;-53
2023/01/26 03:05:34;;;;;;;84.10;36.60;;;2.80;99.90;;;;;;4973989;28;20663;-55
2023/01/26 03:08:00;;;;;;;78.93;33.80;;;2.80;99.90;;;;;;4973925;28;20189;-54
2023/01/26 03:10:25;;;;;;;78.00;33.03;;;2.80;99.90;;;;;;4974079;28;20193;-54
2023/01/26 03:12:52;;;;;;;84.03;34.97;;;2.80;99.90;;;;;;4974047;28;20216;-55
2023/01/26 03:27:25;;;;;;;75.13;33.80;;;2.80;99.90;;;;;;4974188;28;20665;-56
2023/01/26 03:29:17;;;;;;;76.75;32.38;;;2.70;99.90;;;;;;4977305;28;20196;-55
2023/01/26 03:31:42;;;;;;;78.27;32.40;;;2.70;99.90;;;;;;4977272;28;20182;-55
2023/01/26 03:34:08;;;;;;;78.43;33.50;;;2.70;99.90;;;;;;4977187;28;20185;-53
2023/01/26 03:36:34;;;;;;;69.80;29.83;;;2.70;99.90;;;;;;4977088;28;20247;-55
2023/01/26 03:38:59;;;;;;;81.88;32.97;;;2.70;99.90;;;;;;4976942;28;20192;-54
2023/01/26 03:57:50;;;;;;;71.38;30.92;;;2.70;99.90;;;;;;4976849;28;20224;-54
2023/01/26 04:00:16;;;;;;;75.75;29.38;;;2.80;99.90;;;;;;4976860;28;20185;-54
2023/01/26 04:08:26;;;;;;;74.37;31.37;;;2.70;99.90;;;;;;4976822;28;20554;-55
2023/01/26 04:10:53;;;;;;;72.43;30.15;;;2.70;99.90;;;;;;4976835;28;20192;-54
2023/01/26 04:21:36;;;;;;;68.67;27.13;;;2.80;99.90;;;;;;4993601;28;20201;-54
2023/01/26 04:24:08;;;;;;;59.93;25.60;;;2.80;99.90;;;;;;4995533;28;20560;-53
2023/01/26 04:26:35;;;;;;;65.03;27.67;;;2.80;99.90;;;;;;4995617;28;20200;-52
2023/01/26 04:29:06;;;;;;;68.97;28.10;;;2.70;99.90;;;;;;4995568;28;20214;-54
2023/01/26 04:31:32;;;;;;;56.73;25.23;;;2.70;99.90;;;;;;4995145;28;20231;-52
2023/01/26 04:33:59;;;;;;;59.53;26.07;;;2.70;99.90;;;;;;4995616;28;20183;-54
2023/01/26 04:36:25;;;;;;;53.30;25.53;;;2.70;99.90;;;;;;4995471;28;20208;-54
2023/01/26 04:38:51;;;;;;;54.60;24.83;;;2.70;99.90;;;;;;4995519;28;20177;-54
2023/01/26 04:41:17;;;;;;;57.53;26.67;;;2.70;99.90;;;;;;4995365;28;20189;-55
2023/01/26 04:43:42;;;;;;;49.07;24.27;;;2.80;99.90;;;;;;4995325;28;20645;-55
2023/01/26 04:46:09;;;;;;;56.70;25.20;;;2.80;99.90;;;;;;4995259;28;20203;-54
2023/01/26 04:48:35;;;;;;;56.17;24.50;;;2.70;99.90;;;;;;4995619;28;20185;-54
2023/01/26 04:51:04;;;;;;;62.07;23.70;;;2.60;99.90;;;;;;4995465;28;20183;-55
2023/01/26 04:53:31;;;;;;;49.07;22.37;;;2.60;99.90;;;;;;4995220;28;20168;-54
2023/01/26 04:55:57;;;;;;;53.10;22.37;;;2.70;99.90;;;;;;4995018;28;20181;-54
2023/01/26 04:58:23;;;;;;;47.93;23.27;;;2.70;99.90;;;;;;4995249;28;20195;-54
2023/01/26 05:00:54;;;;;;;50.37;22.23;;;2.70;99.90;;;;;;4995169;28;20177;-54
2023/01/26 05:03:20;;;;;;;50.90;23.02;;;2.70;99.90;;;;;;4995030;28;20646;-54
2023/01/26 05:05:51;;;;;;;49.13;22.50;;;2.80;99.90;;;;;;4995290;28;20177;-55
2023/01/26 05:08:18;;;;;;;49.17;21.67;;;2.80;99.90;;;;;;4994913;28;20176;-55
2023/01/26 05:10:43;;;;;;;52.00;23.45;;;2.80;99.90;;;;;;4994774;28;20178;-54
2023/01/26 05:13:09;;;;;;;49.37;22.60;;;2.80;99.90;;;;;;4995248;28;20693;-55
2023/01/26 05:15:38;;;;;;;48.87;22.60;;;2.90;99.90;;;;;;4994968;28;20184;-54
2023/01/26 05:18:05;;;;;;;60.03;24.63;;;2.80;99.90;;;;;;4994781;28;20188;-54
2023/01/26 05:20:31;;;;;;;53.73;23.10;;;2.80;99.90;;;;;;4994710;28;20174;-54
2023/01/26 05:22:58;;;;;;;46.00;21.10;;;2.70;99.90;;;;;;4975520;28;20195;-55
2023/01/26 05:25:23;;;;;;;42.37;20.33;;;2.80;99.90;;;;;;4975541;28;20219;-54
2023/01/26 05:27:49;;;;;;;51.00;19.60;;;2.80;99.90;;;;;;4975337;28;20185;-53
2023/01/26 05:30:15;;;;;;;44.60;20.90;;;2.70;99.90;;;;;;4975162;28;20193;-54
2023/01/26 05:32:41;;;;;;;53.38;21.10;;;2.70;99.90;;;;;;4973854;28;20188;-53
2023/01/26 05:35:08;;;;;;;42.43;19.23;;;2.80;99.90;;;;;;4975096;28;20657;-55
2023/01/26 05:37:33;;;;;;;40.77;19.77;;;2.80;99.90;;;;;;4974926;28;20206;-55
2023/01/26 05:39:59;;;;;;;43.20;20.23;;;2.80;99.90;;;;;;4974808;28;20190;-52
2023/01/26 05:42:26;;;;;;;48.60;22.47;;;2.70;99.90;;;;;;4974173;28;20205;-51
2023/01/26 05:44:52;;;;;;;45.60;20.57;;;2.80;99.90;;;;;;4975016;28;20173;-55
2023/01/26 05:47:18;;;;;;;38.88;19.30;;;2.50;99.90;;;;;;4974858;28;20193;-54
2023/01/26 05:49:44;;;;;;;53.03;19.47;;;2.50;99.90;;;;;;4974775;28;20208;-53
2023/01/26 05:52:18;;;;;;;49.88;18.90;;;2.60;99.90;;;;;;4974673;28;20200;-55
2023/01/26 05:54:43;;;;;;;38.17;18.77;;;2.60;99.90;;;;;;4974699;28;20219;-55
2023/01/26 05:57:09;;;;;;;38.03;19.83;;;2.70;99.90;;;;;;4974639;28;20230;-54
2023/01/26 05:59:35;;;;;;;42.40;20.23;;;2.60;99.90;;;;;;4974796;28;20233;-54
2023/01/26 06:02:01;;;;;;;38.37;19.93;;;2.60;99.90;;;;;;4974687;28;20559;-50
2023/01/26 06:04:27;;;;;;;37.97;18.70;;;2.70;99.90;;;;;;4974625;28;20231;-52
2023/01/26 06:06:58;;;;;;;52.40;19.20;;;2.70;99.90;;;;;;4974536;28;20189;-53
2023/01/26 06:09:24;;;;;;;37.47;19.23;;;2.60;99.90;;;;;;4974642;28;20178;-55
2023/01/26 06:11:49;;;;;;;35.80;17.90;;;2.70;99.90;;;;;;4974654;28;20281;-56
2023/01/26 06:14:15;;;;;;;35.13;19.70;;;2.70;99.90;;;;;;4974565;28;20653;-53
2023/01/26 06:16:41;;;;;;;45.27;19.67;;;2.70;99.90;;;;;;4974449;28;20263;-54
2023/01/26 06:19:09;;;;;;;36.83;19.50;;;2.70;99.90;;;;;;4974458;28;20189;-54
2023/01/26 06:21:34;;;;;;;37.55;18.58;;;2.80;99.90;;;;;;4974636;28;20184;-53
2023/01/26 06:24:00;;;;;;;34.35;16.63;;;2.70;99.90;;;;;;4974297;28;20236;-54
2023/01/26 06:26:26;;;;;;;38.03;18.87;;;2.80;99.90;;;;;;4974508;28;20185;-54
2023/01/26 06:28:52;;;;;;;35.47;18.73;;;2.80;99.90;;;;;;4974514;28;20662;-54
2023/01/26 06:31:19;;;;;;;36.63;18.40;;;2.90;99.90;;;;;;4974400;28;20208;-53
2023/01/26 06:33:45;;;;;;;39.43;18.60;;;2.90;99.90;;;;;;4974367;28;20184;-54
2023/01/26 06:36:13;;;;;;;37.33;17.67;;;2.90;99.90;;;;;;4974198;28;20563;-55
2023/01/26 06:38:44;;;;;;;38.93;19.20;;;2.90;99.90;;;;;;4974426;28;20236;-54
2023/01/26 06:41:09;;;;;;;38.77;19.77;;;2.90;99.90;;;;;;4974174;28;20169;-53
2023/01/26 06:43:35;;;;;;;38.40;18.43;;;2.80;99.90;;;;;;4974337;28;20181;-54
2023/01/26 06:46:02;;;;;;;47.60;19.97;;;2.90;99.90;;;;;;4973936;28;20207;-54
2023/01/26 06:48:30;;;;;;;39.83;19.80;;;2.90;99.90;;;;;;4973709;28;20185;-54
2023/01/26 06:51:19;;;;;;;36.87;18.20;;;2.90;99.90;;;;;;4974081;28;20201;-55
2023/01/26 06:53:55;;;;;;;59.95;22.33;;;2.90;99.90;;;;;;4975324;28;20173;-54
2023/01/26 06:56:21;;;;;;;36.92;19.02;;;2.90;99.90;;;;;;4977964;28;20204;-54
2023/01/26 06:58:48;;;;;;;40.17;19.97;;;2.80;99.90;;;;;;4977807;28;20185;-55
2023/01/26 07:01:21;;;;;;;38.42;17.42;;;3.00;99.90;;;;;;4977789;28;20182;-54
2023/01/26 07:03:48;;;;;;;36.87;18.20;;;3.00;99.90;;;;;;4977732;28;20169;-54
2023/01/26 07:06:14;;;;;;;38.55;19.70;;;3.00;99.90;;;;;;4977852;28;20181;-55
2023/01/26 07:08:40;;;;;;;53.33;22.07;;;3.00;99.90;;;;;;4977796;28;20181;-54
2023/01/26 07:11:07;;;;;;;35.40;18.58;;;3.00;99.90;;;;;;4977705;28;20178;-53
2023/01/26 07:13:32;;;;;;;38.97;17.95;;;3.00;99.90;;;;;;4977652;28;20181;-52
2023/01/26 07:16:06;;;;;;;36.63;18.33;;;3.00;99.90;;;;;;4977410;28;20236;-54
2023/01/26 07:18:32;;;;;;;33.67;16.03;;;3.00;99.90;;;;;;4977796;28;20184;-54
2023/01/26 07:21:01;;;;;;;34.83;17.83;;;3.10;99.90;;;;;;4977532;28;20265;-53
2023/01/26 07:23:28;;;;;;;35.15;18.58;;;3.10;99.90;;;;;;4977408;28;20177;-54
2023/01/26 07:25:53;;;;;;;36.87;17.50;;;3.10;99.90;;;;;;4977550;28;20173;-54
2023/01/26 07:28:19;;;;;;;43.27;18.37;;;3.10;99.90;;;;;;4977237;28;20247;-55
2023/01/26 07:30:45;;;;;;;44.37;19.50;;;3.00;99.90;;;;;;4977483;28;20185;-55
2023/01/26 07:33:10;;;;;;;51.90;19.97;;;2.90;99.90;;;;;;4977398;28;20534;-53
2023/01/26 07:35:36;;;;;;;44.03;20.17;;;2.90;99.90;;;;;;4977309;28;20627;-55
2023/01/26 07:38:05;;;;;;;43.27;18.83;;;3.00;99.90;;;;;;4977153;28;20673;-54
2023/01/26 07:40:31;;;;;;;43.20;20.23;;;3.00;99.90;;;;;;4977112;28;20185;-55
2023/01/26 07:42:58;;;;;;;61.38;21.75;;;3.00;99.90;;;;;;4977004;28;20264;-53
2023/01/26 07:45:25;;;;;;;38.50;20.53;;;3.00;99.90;;;;;;4977172;28;20259;-54
2023/01/26 07:47:52;;;;;;;40.53;18.67;;;2.90;99.90;;;;;;4977142;28;20178;-53
2023/01/26 07:50:19;;;;;;;46.33;20.55;;;2.90;99.90;;;;;;4977030;28;20193;-53
2023/01/26 07:52:45;;;;;;;41.67;19.43;;;2.90;99.90;;;;;;4977089;28;20181;-54
2023/01/26 07:55:11;;;;;;;45.20;18.47;;;2.70;99.90;;;;;;4976857;28;20196;-55
2023/01/26 07:57:37;;;;;;;43.60;19.40;;;2.70;99.90;;;;;;4976557;28;20215;-55
2023/01/26 08:00:03;;;;;;;38.63;19.57;;;2.70;99.90;;;;;;4976976;28;20546;-54
2023/01/26 08:02:29;;;;;;;40.73;18.63;;;2.70;99.90;;;;;;4976902;28;20260;-55
2023/01/26 08:04:54;;;;;;;46.13;21.17;;;2.70;99.90;;;;;;4975911;28;20204;-55
2023/01/26 08:07:20;;;;;;;39.70;20.37;;;2.90;99.90;;;;;;4976573;28;20212;-54
2023/01/26 08:09:46;;;;;;;38.87;18.83;;;3.00;99.90;;;;;;4977157;28;20631;-54
2023/01/26 08:12:11;;;;;;;44.53;21.10;;;2.90;99.90;;;;;;4976441;28;20185;-54
2023/01/26 08:14:37;;;;;;;45.33;20.63;;;2.90;99.90;;;;;;4977087;28;20254;-53
2023/01/26 08:17:02;;;;;;;41.23;17.97;;;2.90;99.90;;;;;;4976286;28;20598;-55
2023/01/26 08:19:28;;;;;;;44.27;20.67;;;2.90;99.90;;;;;;4976440;28;20193;-54
2023/01/26 08:21:56;;;;;;;41.83;19.97;;;2.90;99.90;;;;;;4976531;28;20269;-54
2023/01/26 08:24:22;;;;;;;42.90;19.87;;;2.90;99.90;;;;;;4976511;28;20190;-52
2023/01/26 08:26:47;;;;;;;42.10;19.97;;;2.90;99.90;;;;;;4976548;28;20188;-54
2023/01/26 08:29:13;;;;;;;39.70;19.17;;;2.80;99.90;;;;;;4976401;28;20697;-54
2023/01/26 08:31:38;;;;;;;42.03;20.67;;;2.80;99.90;;;;;;4976404;28;20182;-54
2023/01/26 08:34:04;;;;;;;46.23;20.73;;;2.80;99.90;;;;;;4976232;28;20231;-53
2023/01/26 08:36:30;;;;;;;49.27;22.37;;;2.90;99.90;;;;;;4976166;28;20213;-54
2023/01/26 08:38:55;;;;;;;47.50;20.40;;;3.00;99.90;;;;;;4976141;28;20181;-54
2023/01/26 08:41:21;;;;;;;49.23;20.20;;;3.00;99.90;;;;;;4975642;28;20190;-55
2023/01/26 08:43:47;;;;;;;55.23;22.63;;;3.00;99.90;;;;;;4976216;28;20268;-55
2023/01/26 08:46:13;;;;;;;48.53;21.13;;;3.10;99.90;;;;;;4975920;28;20642;-54
2023/01/26 08:48:39;;;;;;;56.07;23.33;;;3.10;99.90;;;;;;4976009;28;20177;-55
2023/01/26 08:51:06;;;;;;;57.80;23.63;;;3.10;99.90;;;;;;4975922;28;20538;-55
2023/01/26 08:53:34;;;;;;;59.50;23.47;;;3.10;99.90;;;;;;4975776;28;20246;-53
2023/01/26 08:56:05;;;;;;;58.87;23.40;;;3.10;99.90;;;;;;4975614;28;20185;-55
2023/01/26 08:58:32;;;;;;;61.77;24.50;;;3.10;99.90;;;;;;4975870;28;20507;-54
2023/01/26 09:00:58;;;;;;;62.67;27.17;;;3.10;99.90;;;;;;4975820;28;20317;-54
2023/01/26 09:03:24;;;;;;;75.43;28.27;;;3.20;99.90;;;;;;4975498;28;20653;-55
2023/01/26 09:05:49;;;;;;;84.00;31.17;;;3.20;99.90;;;;;;4975584;28;20272;-54
2023/01/26 09:08:15;;;;;;;76.63;30.00;;;3.30;99.90;;;;;;4975574;28;20538;-54
2023/01/26 09:10:43;;;;;;;81.10;30.40;;;3.40;99.90;;;;;;4975312;28;20636;-55
2023/01/26 09:13:10;;;;;;;74.78;27.35;;;3.40;99.90;;;;;;4975628;28;20638;-54
2023/01/26 09:15:37;;;;;;;86.70;27.37;;;3.40;99.90;;;;;;4975442;28;20182;-54
2023/01/26 09:18:03;;;;;;;95.03;29.48;;;3.50;99.90;;;;;;4975175;28;20252;-54
2023/01/26 09:20:29;;;;;;;92.43;31.33;;;3.50;99.90;;;;;;4975425;28;20251;-55
2023/01/26 09:22:54;;;;;;;84.87;31.00;;;3.60;99.90;;;;;;4975253;28;20534;-54
2023/01/26 09:25:20;;;;;;;92.43;32.42;;;3.70;99.90;;;;;;4975367;28;20685;-54
2023/01/26 09:27:46;;;;;;;89.27;31.00;;;3.80;99.90;;;;;;4975302;28;20244;-53
2023/01/26 09:30:12;;;;;;;85.27;32.17;;;3.80;99.90;;;;;;4974132;28;20189;-54
2023/01/26 09:32:37;;;;;;;85.77;30.60;;;3.90;99.90;;;;;;4974241;28;20217;-55
2023/01/26 09:35:03;;;;;;;98.75;31.75;;;4.00;99.90;;;;;;4973645;28;20186;-55
2023/01/26 09:37:29;;;;;;;87.50;31.67;;;4.00;99.90;;;;;;4974180;28;20299;-54
2023/01/26 09:39:54;;;;;;;78.93;27.97;;;4.10;99.90;;;;;;4974041;28;20189;-54
2023/01/26 09:42:48;;;;;;;77.80;30.83;;;4.10;99.90;;;;;;4973654;28;20229;-56
2023/01/26 09:45:23;;;;;;;64.38;24.08;;;4.20;99.90;;;;;;4974348;28;20530;-56
2023/01/26 09:48:18;;;;;;;81.28;26.92;;;4.30;99.90;;;;;;4974253;28;20208;-53
2023/01/26 09:50:56;;;;;;;70.03;24.55;;;4.40;99.90;;;;;;4974749;28;20211;-54
2023/01/26 09:53:34;;;;;;;69.47;28.40;;;4.50;99.90;;;;;;4974308;28;20176;-54
2023/01/26 09:56:00;;;;;;;80.28;28.08;;;4.60;99.90;;;;;;4973456;28;20180;-54
2023/01/26 09:58:32;;;;;;;64.57;23.45;;;4.60;99.90;;;;;;4974182;28;20272;-54
2023/01/26 10:01:01;;;;;;;65.97;25.88;;;4.70;99.90;;;;;;4974462;28;20177;-53
2023/01/26 10:03:43;;;;;;;61.08;22.92;;;4.70;99.90;;;;;;4974656;28;20169;-55
2023/01/26 10:06:20;;;;;;;55.53;22.38;;;4.80;99.90;;;;;;4973892;28;20591;-55
2023/01/26 10:08:48;;;;;;;65.90;20.85;;;4.90;99.90;;;;;;4973778;28;20194;-55
2023/01/26 10:11:24;;;;;;;57.92;20.85;;;5.00;99.90;;;;;;4974147;28;20595;-54
2023/01/26 10:14:08;;;;;;;52.03;18.23;;;5.20;99.90;;;;;;4974233;28;20211;-54
2023/01/26 10:16:34;;;;;;;53.17;18.50;;;5.40;99.90;;;;;;4973917;28;20205;-52
2023/01/26 10:19:11;;;;;;;48.20;15.88;;;5.50;99.90;;;;;;4974091;28;20195;-55
2023/01/26 10:21:42;;;;;;;47.17;16.65;;;5.60;99.90;;;;;;4973900;28;20187;-54
2023/01/26 10:24:10;;;;;;;39.28;13.65;;;5.80;99.90;;;;;;4973941;28;20212;-55
2023/01/26 10:26:37;;;;;;;43.90;11.80;;;5.80;99.90;;;;;;4973948;28;20185;-56
2023/01/26 10:29:03;;;;;;;33.13;12.23;;;5.90;99.90;;;;;;4975606;28;20189;-56
2023/01/26 10:31:31;;;;;;;33.13;12.10;;;6.10;99.90;;;;;;4978022;28;20177;-54
2023/01/26 10:34:28;;;;;;;40.13;11.07;;;6.20;99.90;;;;;;4977789;28;20184;-55
2023/01/26 10:37:22;;;;;;;36.58;10.75;;;6.30;99.90;;;;;;4977376;28;20693;-55
2023/01/26 10:40:03;;;;;;;45.00;10.05;;;6.40;99.90;;;;;;4977760;28;20509;-55
2023/01/26 10:42:34;;;;;;;27.75;8.20;;;6.50;99.90;;;;;;4977970;28;20173;-54
2023/01/26 10:45:03;;;;;;;33.35;10.05;;;6.40;99.90;;;;;;4977806;28;20181;-55
2023/01/26 10:47:28;;;;;;;27.17;8.18;;;6.50;99.90;;;;;;4978009;28;20607;-55
2023/01/26 10:50:21;;;;;;;29.52;7.88;;;6.50;99.90;;;;;;4977566;28;20215;-54
2023/01/26 10:52:59;;;;;;;27.30;7.07;;;6.50;99.90;;;;;;4977572;28;20232;-53
2023/01/26 10:55:25;;;;;;;23.38;7.03;;;6.50;99.90;;;;;;4977661;28;20287;-55
2023/01/26 10:57:51;;;;;;;24.80;6.68;;;6.50;99.90;;;;;;4977459;28;20236;-55
2023/01/26 11:00:32;;;;;;;24.15;6.03;;;6.50;99.90;;;;;;4977545;28;20181;-55
2023/01/26 11:03:18;;;;;;;25.05;7.22;;;6.50;99.90;;;;;;4977391;28;20627;-55
2023/01/26 11:05:46;;;;;;;22.00;6.03;;;6.50;99.90;;;;;;4977337;28;20579;-52
2023/01/26 11:08:33;;;;;;;17.85;4.78;;;6.40;99.90;;;;;;4977444;28;20200;-54
2023/01/26 11:10:59;;;;;;;21.63;5.97;;;6.40;99.90;;;;;;4977313;28;20176;-54
2023/01/26 11:13:24;;;;;;;24.48;5.68;;;6.50;99.90;;;;;;4977245;28;20174;-54
2023/01/26 11:16:02;;;;;;;21.55;5.97;;;6.50;99.90;;;;;;4977004;28;20181;-55
2023/01/26 11:18:57;;;;;;;24.40;5.35;;;6.50;99.90;;;;;;4977246;28;20603;-55
2023/01/26 11:21:38;;;;;;;17.75;4.80;;;6.50;99.90;;;;;;4976912;28;20199;-55
2023/01/26 11:24:08;;;;;;;21.17;4.55;;;6.50;99.90;;;;;;4976875;28;20193;-55
2023/01/26 11:26:43;;;;;;;22.35;4.70;;;6.50;99.90;;;;;;4977423;28;20225;-53
2023/01/26 11:29:27;;;;;;;21.05;5.28;;;6.60;99.90;;;;;;4977059;28;20225;-53
2023/01/26 11:32:21;;;;;;;19.17;5.28;;;6.50;99.90;;;;;;4976878;28;20646;-54
2023/01/26 11:34:51;;;;;;;24.25;5.75;;;6.60;99.90;;;;;;4976959;28;20181;-54
2023/01/26 11:37:37;;;;;;;22.10;4.47;;;6.70;99.90;;;;;;4976612;28;20209;-54
2023/01/26 11:40:22;;;;;;;21.77;5.43;;;6.80;99.90;;;;;;4976634;28;20182;-54
2023/01/26 11:43:05;;;;;;;24.73;5.10;;;6.90;99.90;;;;;;4976469;28;20546;-54
2023/01/26 11:45:49;;;;;;;21.73;5.20;;;6.90;99.90;;;;;;4976985;28;20173;-54
2023/01/26 11:48:27;;;;;;;17.58;4.93;;;6.90;99.90;;;;;;4976594;28;20264;-54
2023/01/26 11:51:01;;;;;;;24.63;5.50;;;7.00;99.90;;;;;;4976409;28;20272;-54
2023/01/26 11:53:54;;;;;;;27.48;5.80;;;7.00;99.90;;;;;;4976681;28;20185;-54
2023/01/26 11:56:35;;;;;;;17.67;4.43;;;7.10;99.90;;;;;;4976517;28;20209;-55
2023/01/26 11:59:09;;;;;;;19.13;4.47;;;7.20;99.90;;;;;;4976461;28;20182;-55
2023/01/26 12:02:02;;;;;;;21.15;5.88;;;7.20;99.90;;;;;;4976231;28;20181;-55
2023/01/26 12:04:32;;;;;;;20.38;5.53;;;7.30;99.90;;;;;;4948682;28;20194;-56
2023/01/26 12:07:10;;;;;;;17.15;4.60;;;7.40;99.90;;;;;;4976385;28;20271;-55
2023/01/26 12:09:41;;;;;;;18.75;5.60;;;7.50;99.90;;;;;;4976265;28;20176;-53
2023/01/26 12:12:19;;;;;;;23.92;5.13;;;7.40;99.90;;;;;;4976122;28;20220;-55
2023/01/26 12:14:53;;;;;;;17.65;4.85;;;7.40;99.90;;;;;;4976405;28;20231;-55
2023/01/26 12:17:37;;;;;;;16.38;5.65;;;7.70;99.90;;;;;;4976149;28;20212;-55
2023/01/26 12:20:39;;;;;;;20.42;5.47;;;7.70;99.90;;;;;;4976071;28;20178;-56
2023/01/26 12:23:11;;;;;;;15.10;4.95;;;7.70;99.90;;;;;;4976037;28;20225;-55
2023/01/26 12:25:40;;;;;;;13.93;4.13;;;7.70;99.90;;;;;;4976295;28;20205;-54
2023/01/26 12:28:17;;;;;;;15.82;4.95;;;7.70;99.90;;;;;;4975908;28;20174;-55
2023/01/26 12:30:52;;;;;;;16.65;4.07;;;7.60;99.90;;;;;;4975843;28;20592;-55
2023/01/26 12:33:18;;;;;;;16.45;4.57;;;7.50;99.90;;;;;;4975859;28;20207;-54
2023/01/26 12:35:58;;;;;;;17.20;4.40;;;7.70;99.90;;;;;;4975960;28;20185;-52
2023/01/26 12:38:50;;;;;;;17.90;4.80;;;7.60;99.90;;;;;;4974588;28;20546;-54
2023/01/26 12:41:21;;;;;;;14.35;4.03;;;7.60;99.90;;;;;;4974358;28;20192;-54
2023/01/26 12:44:31;;;;;;;13.45;3.60;;;7.60;99.90;;;;;;4975620;28;20606;-55
2023/01/26 12:47:21;;;;;;;13.30;3.85;;;7.60;99.90;;;;;;4960296;28;20208;-56
2023/01/26 12:50:03;;;;;;;16.88;3.72;;;7.70;99.90;;;;;;4975506;28;20205;-55
2023/01/26 12:53:07;;;;;;;38.58;12.98;;;7.60;99.90;;;;;;4974950;28;20174;-55
2023/01/26 12:55:43;;;;;;;22.15;7.00;;;7.60;99.90;;;;;;4934684;29;20265;-55
2023/01/26 12:58:17;;;;;;;15.57;4.95;;;7.70;99.90;;;;;;4934716;29;20304;-55
2023/01/26 13:00:51;;;;;;;12.05;3.30;;;7.80;99.90;;;;;;4958531;28;20675;-54
2023/01/26 13:03:28;;;;;;;33.55;12.40;;;7.60;99.90;;;;;;4975624;28;20633;-55
2023/01/26 13:06:09;;;;;;;16.05;5.20;;;7.50;99.90;;;;;;4975138;28;20702;-54
2023/01/26 13:08:35;;;;;;;11.98;3.42;;;7.40;99.90;;;;;;4974992;28;20189;-54
2023/01/26 13:11:05;;;;;;;21.27;6.15;;;7.50;99.90;;;;;;4975201;28;20174;-55
2023/01/26 13:13:35;;;;;;;17.05;6.55;;;7.50;99.90;;;;;;4975065;28;20702;-55
2023/01/26 13:16:31;;;;;;;15.40;4.70;;;7.40;99.90;;;;;;4974973;28;20232;-54
2023/01/26 13:18:58;;;;;;;19.65;7.40;;;7.50;99.90;;;;;;4973726;28;20191;-54
2023/01/26 13:21:40;;;;;;;36.25;11.77;;;7.50;99.90;;;;;;4974732;28;20174;-54
2023/01/26 13:24:15;;;;;;;35.78;24.80;;;7.60;99.90;;;;;;4974955;28;20221;-56
2023/01/26 13:26:45;;;;;;;13.73;6.03;;;7.60;99.90;;;;;;4974831;28;20181;-56
2023/01/26 13:29:31;;;;;;;12.90;3.90;;;7.60;99.90;;;;;;4974740;28;20173;-54
2023/01/26 13:32:20;;;;;;;14.77;4.43;;;7.70;99.90;;;;;;4974865;28;20177;-53
2023/01/26 13:34:53;;;;;;;14.88;3.92;;;7.80;99.90;;;;;;4974384;28;20179;-54
2023/01/26 13:37:46;;;;;;;17.67;4.30;;;7.70;99.90;;;;;;4974556;28;20211;-54